Time;durP1;ratioP1;P1;durP2;ratioP2;P2;SDS_P1;SDS_P2;PMS_P1;PMS_P2;Temp;Humidity;BMP_temperature;BMP_pressure;BME280_temperature;BME280_humidity;BME280_pressure;Samples;Min_cycle;Max_cycle;Signal;HPM_P1;HPM_P2
2023/07/14 00:00:21;;;;;;;3.15;2.63;;;17.10;95.40;;;;;;5018459;28;20691;-89
2023/07/14 00:02:50;;;;;;;2.90;2.47;;;17.20;95.10;;;;;;5058439;28;20201;-89
2023/07/14 00:05:22;;;;;;;5.07;2.85;;;17.20;95.10;;;;;;5054696;28;20245;-89
2023/07/14 00:10:33;;;;;;;3.50;3.00;;;17.50;94.30;;;;;;5046753;28;20202;-89
2023/07/14 00:13:02;;;;;;;4.57;2.38;;;17.40;95.00;;;;;;5030786;28;20794;-91
2023/07/14 00:15:32;;;;;;;4.85;3.75;;;17.50;94.80;;;;;;5038564;28;20612;-91
2023/07/14 00:18:17;;;;;;;4.20;2.70;;;17.60;94.70;;;;;;5046688;28;20577;-91
2023/07/14 00:20:46;;;;;;;2.90;2.60;;;17.50;95.00;;;;;;5045455;28;20785;-90
2023/07/14 00:23:15;;;;;;;5.00;3.10;;;17.60;94.60;;;;;;5031162;28;20741;-90
2023/07/14 00:25:43;;;;;;;4.32;3.17;;;17.70;94.20;;;;;;5032954;28;20225;-90
2023/07/14 00:28:17;;;;;;;3.75;2.60;;;17.60;94.10;;;;;;5037272;28;20194;-90
2023/07/14 00:30:44;;;;;;;3.50;2.90;;;17.60;94.30;;;;;;5035552;28;20679;-89
2023/07/14 00:33:13;;;;;;;4.97;2.80;;;17.60;94.40;;;;;;5020865;28;20650;-90
2023/07/14 00:35:41;;;;;;;3.97;2.70;;;17.50;94.50;;;;;;5047228;28;20209;-89
2023/07/14 00:38:11;;;;;;;6.05;3.28;;;17.40;94.60;;;;;;5046001;28;20194;-90
2023/07/14 00:40:41;;;;;;;3.60;2.70;;;17.50;94.90;;;;;;5051212;28;20573;-90
2023/07/14 00:43:17;;;;;;;4.20;2.50;;;17.40;94.70;;;;;;5033041;28;20251;-90
2023/07/14 00:45:50;;;;;;;3.22;2.40;;;17.20;95.00;;;;;;5047620;28;20241;-90
2023/07/14 00:48:20;;;;;;;3.17;2.65;;;17.10;95.20;;;;;;5035116;28;20669;-90
2023/07/14 00:50:53;;;;;;;3.60;2.50;;;17.00;95.60;;;;;;5049928;28;20198;-90
2023/07/14 00:53:24;;;;;;;3.35;2.65;;;17.00;95.70;;;;;;5027378;28;20198;-90
2023/07/14 00:55:57;;;;;;;4.53;2.50;;;16.90;95.70;;;;;;5049858;28;20563;-89
2023/07/14 00:58:26;;;;;;;3.17;2.65;;;16.80;95.80;;;;;;5051624;28;20205;-89
2023/07/14 01:01:08;;;;;;;3.85;2.58;;;16.70;96.00;;;;;;5047929;28;20218;-90
2023/07/14 01:03:40;;;;;;;3.13;2.75;;;16.70;96.10;;;;;;5044596;28;20712;-90
2023/07/14 01:06:11;;;;;;;2.85;2.50;;;16.70;96.30;;;;;;5050138;28;20218;-90
2023/07/14 01:08:53;;;;;;;5.30;2.58;;;16.70;96.30;;;;;;5033102;28;20213;-88
2023/07/14 01:11:24;;;;;;;2.80;2.30;;;16.70;96.30;;;;;;5049178;28;20208;-89
2023/07/14 01:13:51;;;;;;;3.92;2.50;;;16.60;96.40;;;;;;5047885;28;20202;-90
2023/07/14 01:16:19;;;;;;;6.68;2.25;;;16.50;96.50;;;;;;5050628;28;20202;-90
2023/07/14 01:18:47;;;;;;;3.05;2.75;;;16.40;97.00;;;;;;5051262;28;20217;-89
2023/07/14 01:21:16;;;;;;;3.38;2.50;;;16.40;96.90;;;;;;5028576;28;20201;-90
2023/07/14 01:26:56;;;;;;;5.55;2.65;;;16.40;97.20;;;;;;5096698;27;20620;-87
2023/07/14 01:29:24;;;;;;;4.38;2.80;;;16.30;97.20;;;;;;4998465;28;20197;-87
2023/07/14 01:31:53;;;;;;;6.07;2.40;;;16.30;97.20;;;;;;5007718;28;20295;-88
2023/07/14 01:34:20;;;;;;;4.60;2.70;;;16.30;97.20;;;;;;4999122;28;20215;-88
2023/07/14 01:36:48;;;;;;;2.92;2.72;;;16.30;97.20;;;;;;5004544;28;20580;-88
2023/07/14 01:39:15;;;;;;;3.42;2.60;;;16.40;97.20;;;;;;5022513;28;20223;-87
2023/07/14 01:41:43;;;;;;;4.22;2.60;;;16.30;97.20;;;;;;5028185;28;20199;-87
2023/07/14 01:44:23;;;;;;;4.82;2.30;;;16.20;97.20;;;;;;5001652;28;20206;-87
2023/07/14 01:46:51;;;;;;;4.05;2.58;;;16.20;97.20;;;;;;5002584;28;20720;-87
2023/07/14 01:49:30;;;;;;;4.03;2.38;;;16.10;97.80;;;;;;5027383;28;20196;-88
2023/07/14 01:52:01;;;;;;;4.03;3.08;;;16.10;98.00;;;;;;5019846;28;20198;-88
2023/07/14 01:54:35;;;;;;;3.10;2.80;;;16.10;98.30;;;;;;5021407;28;20273;-89
2023/07/14 01:57:06;;;;;;;3.58;2.15;;;16.10;98.10;;;;;;5009627;28;20191;-88
2023/07/14 01:59:37;;;;;;;4.22;2.53;;;16.20;97.90;;;;;;5032505;28;20209;-88
2023/07/14 02:02:07;;;;;;;3.83;2.70;;;16.10;97.80;;;;;;5028277;28;20200;-89
2023/07/14 02:04:46;;;;;;;3.47;2.65;;;16.00;98.30;;;;;;5046276;28;20664;-89
2023/07/14 02:07:16;;;;;;;6.55;2.97;;;16.00;99.10;;;;;;5008716;28;20200;-88
2023/07/14 02:09:44;;;;;;;3.40;2.70;;;15.90;98.90;;;;;;5023291;28;20287;-88
2023/07/14 02:12:15;;;;;;;3.53;2.92;;;15.90;98.90;;;;;;5081874;28;20880;-88
2023/07/14 02:14:48;;;;;;;2.78;2.53;;;15.80;99.50;;;;;;4996998;28;20574;-87
2023/07/14 02:17:25;;;;;;;3.75;2.65;;;15.80;99.70;;;;;;5002241;28;20595;-89
2023/07/14 02:19:53;;;;;;;3.17;2.67;;;15.90;99.80;;;;;;5002813;28;20260;-87
2023/07/14 02:22:21;;;;;;;5.88;2.80;;;16.00;99.50;;;;;;5000060;28;20200;-88
2023/07/14 02:24:49;;;;;;;3.08;2.67;;;15.90;99.40;;;;;;5020671;28;20231;-88
2023/07/14 02:27:17;;;;;;;3.58;2.42;;;16.00;99.40;;;;;;5016935;28;20641;-88
2023/07/14 02:29:45;;;;;;;3.30;2.70;;;15.90;99.20;;;;;;5010394;28;20199;-87
2023/07/14 02:32:18;;;;;;;3.90;2.67;;;15.90;99.20;;;;;;4995548;28;20203;-88
2023/07/14 02:34:54;;;;;;;4.88;2.92;;;15.70;99.40;;;;;;5004199;28;20207;-88
2023/07/14 02:38:00;;;;;;;3.40;2.95;;;15.60;99.90;;;;;;4986710;28;20207;-88
2023/07/14 02:40:34;;;;;;;7.10;2.75;;;15.60;99.90;;;;;;4980086;28;20266;-87
2023/07/14 02:43:05;;;;;;;3.38;2.50;;;15.60;99.90;;;;;;5002740;28;20196;-88
2023/07/14 02:48:19;;;;;;;4.55;2.60;;;15.50;99.90;;;;;;4999909;28;20192;-89
2023/07/14 02:50:48;;;;;;;3.53;2.78;;;15.50;99.90;;;;;;5015831;28;20224;-88
2023/07/14 02:53:17;;;;;;;3.47;3.13;;;15.50;99.90;;;;;;4989701;28;20200;-88
2023/07/14 02:55:44;;;;;;;3.85;2.50;;;15.50;99.90;;;;;;4974554;28;20232;-87
2023/07/14 02:58:11;;;;;;;4.43;2.75;;;15.50;99.90;;;;;;5002738;28;20199;-87
2023/07/14 03:03:21;;;;;;;9.43;2.42;;;15.50;99.90;;;;;;4986882;28;20211;-88
2023/07/14 03:05:49;;;;;;;3.47;3.17;;;15.50;99.90;;;;;;4987693;28;20243;-87
2023/07/14 03:08:17;;;;;;;4.80;2.45;;;15.40;99.90;;;;;;4982872;28;20200;-89
2023/07/14 03:10:46;;;;;;;5.30;3.20;;;15.40;99.90;;;;;;4992164;28;20205;-89
2023/07/14 03:13:15;;;;;;;5.15;2.88;;;15.40;99.90;;;;;;4985524;28;20207;-88
2023/07/14 03:15:45;;;;;;;6.07;2.97;;;15.30;99.90;;;;;;4983532;28;20357;-89
2023/07/14 03:18:14;;;;;;;4.85;2.88;;;15.20;99.90;;;;;;4984164;28;22174;-88
2023/07/14 03:20:41;;;;;;;3.83;3.00;;;15.20;99.90;;;;;;4979130;28;20224;-89
2023/07/14 03:23:08;;;;;;;5.75;3.03;;;15.10;99.90;;;;;;4981329;28;20201;-88
2023/07/14 03:25:35;;;;;;;3.13;2.35;;;15.10;99.90;;;;;;4976827;28;20231;-87
2023/07/14 03:28:03;;;;;;;3.17;2.97;;;15.10;99.90;;;;;;4976937;28;20200;-88
2023/07/14 03:30:32;;;;;;;3.38;2.88;;;15.10;99.90;;;;;;4975962;28;20201;-87
2023/07/14 03:33:01;;;;;;;3.85;2.70;;;15.10;99.90;;;;;;4980877;28;20671;-87
2023/07/14 03:35:27;;;;;;;4.00;2.60;;;15.10;99.90;;;;;;4983545;28;20216;-88
2023/07/14 03:37:54;;;;;;;5.20;2.70;;;15.10;99.90;;;;;;4985219;28;20206;-88
2023/07/14 03:40:21;;;;;;;4.13;2.97;;;15.10;99.90;;;;;;4981012;28;20207;-88
2023/07/14 03:42:48;;;;;;;3.15;2.85;;;15.10;99.90;;;;;;4976238;28;20208;-87
2023/07/14 03:45:15;;;;;;;3.88;2.85;;;15.00;99.90;;;;;;4978307;28;20239;-88
2023/07/14 03:47:41;;;;;;;3.10;2.65;;;14.90;99.90;;;;;;4985064;28;20204;-88
2023/07/14 03:50:13;;;;;;;5.20;2.75;;;14.90;99.90;;;;;;4983392;28;20219;-87
2023/07/14 03:52:41;;;;;;;5.10;3.13;;;14.90;99.90;;;;;;4978498;28;20197;-88
2023/07/14 03:55:09;;;;;;;3.20;2.35;;;15.00;99.90;;;;;;4978163;28;20196;-88
2023/07/14 03:57:36;;;;;;;3.10;2.80;;;15.00;99.90;;;;;;4979976;28;20774;-89
2023/07/14 04:00:12;;;;;;;5.65;3.10;;;14.90;99.90;;;;;;4987921;28;20216;-89
2023/07/14 04:02:39;;;;;;;4.60;2.90;;;15.00;99.90;;;;;;4987246;28;20204;-88
2023/07/14 04:05:07;;;;;;;4.32;2.75;;;15.00;99.90;;;;;;4986777;28;20207;-89
2023/07/14 04:07:36;;;;;;;4.15;2.90;;;15.10;99.90;;;;;;4966374;28;20210;-87
2023/07/14 04:10:04;;;;;;;4.35;3.17;;;15.10;99.90;;;;;;4986213;28;20245;-87
2023/07/14 04:12:34;;;;;;;4.25;2.58;;;15.20;99.90;;;;;;5001889;28;20644;-89
2023/07/14 04:15:02;;;;;;;3.97;2.50;;;15.30;99.90;;;;;;4988882;28;20378;-89
2023/07/14 04:17:34;;;;;;;5.93;2.95;;;15.30;99.90;;;;;;4978401;28;20296;-87
2023/07/14 04:20:01;;;;;;;5.28;3.08;;;15.40;99.90;;;;;;4984221;28;20312;-88
2023/07/14 04:22:28;;;;;;;3.67;2.70;;;15.50;99.90;;;;;;4985086;28;20203;-88
2023/07/14 04:24:58;;;;;;;4.80;3.10;;;15.50;99.90;;;;;;4991941;28;20536;-88
2023/07/14 04:27:25;;;;;;;8.82;2.90;;;15.50;99.90;;;;;;4987713;28;20238;-88
2023/07/14 04:29:52;;;;;;;7.20;3.20;;;15.50;99.90;;;;;;4986861;28;20212;-88
2023/07/14 04:32:18;;;;;;;3.38;2.60;;;15.50;99.90;;;;;;4965751;28;20197;-87
2023/07/14 04:34:49;;;;;;;3.15;2.85;;;15.60;99.90;;;;;;4978113;28;20201;-87
2023/07/14 04:37:15;;;;;;;6.88;2.83;;;15.50;99.90;;;;;;4978979;28;20227;-87
2023/07/14 04:39:44;;;;;;;3.78;2.38;;;15.60;99.90;;;;;;4983204;28;20568;-87
2023/07/14 04:42:14;;;;;;;4.57;2.17;;;15.60;99.90;;;;;;4993634;28;20202;-89
2023/07/14 04:44:41;;;;;;;4.63;2.85;;;15.60;99.90;;;;;;4979314;28;20200;-88
2023/07/14 04:47:08;;;;;;;2.90;2.47;;;15.70;99.90;;;;;;4991554;28;20219;-88
2023/07/14 04:49:35;;;;;;;7.00;2.80;;;15.80;99.30;;;;;;4997004;28;20210;-89
2023/07/14 04:52:02;;;;;;;4.05;2.63;;;15.80;99.20;;;;;;5000876;28;20397;-91
2023/07/14 04:54:29;;;;;;;4.75;2.70;;;15.80;99.10;;;;;;5005408;28;20209;-90
2023/07/14 04:56:56;;;;;;;3.03;2.60;;;15.90;99.00;;;;;;4990088;28;20200;-92
2023/07/14 04:59:24;;;;;;;6.97;2.83;;;15.90;98.90;;;;;;4989096;28;20200;-91
2023/07/14 05:01:51;;;;;;;5.25;2.70;;;16.10;99.20;;;;;;4991076;28;20282;-90
2023/07/14 05:04:18;;;;;;;2.42;2.20;;;16.10;98.50;;;;;;4988575;28;20242;-90
2023/07/14 05:06:45;;;;;;;3.22;2.35;;;16.20;98.40;;;;;;4999897;28;20860;-91
2023/07/14 05:09:13;;;;;;;2.67;2.40;;;16.30;97.70;;;;;;4997352;28;20196;-90
2023/07/14 05:11:40;;;;;;;4.68;2.80;;;16.40;97.70;;;;;;4974347;28;20201;-90
2023/07/14 05:14:07;;;;;;;6.97;2.60;;;16.50;97.20;;;;;;4981833;28;20660;-90
2023/07/14 05:16:36;;;;;;;3.10;2.20;;;16.70;97.30;;;;;;4983144;28;20617;-91
2023/07/14 05:19:03;;;;;;;3.88;2.40;;;16.80;96.70;;;;;;4986692;28;20319;-92
2023/07/14 05:21:30;;;;;;;4.13;2.50;;;16.90;95.70;;;;;;4993034;28;20208;-90
2023/07/14 05:23:56;;;;;;;3.38;2.28;;;17.00;95.20;;;;;;5016041;28;20580;-89
2023/07/14 05:26:24;;;;;;;5.28;2.50;;;17.10;95.30;;;;;;4983292;28;20221;-90
2023/07/14 05:28:51;;;;;;;3.10;2.45;;;17.00;95.10;;;;;;4986205;28;20200;-90
2023/07/14 05:31:19;;;;;;;3.50;2.42;;;16.90;95.70;;;;;;5000480;28;20755;-90
2023/07/14 05:33:47;;;;;;;5.05;2.40;;;17.00;96.00;;;;;;4999129;28;20270;-88
2023/07/14 05:36:14;;;;;;;5.18;2.42;;;17.10;95.70;;;;;;5005255;28;20226;-88
2023/07/14 05:38:41;;;;;;;3.55;2.28;;;17.30;95.00;;;;;;4994620;28;20198;-89
2023/07/14 05:41:08;;;;;;;3.28;2.20;;;17.40;93.80;;;;;;5011216;28;20751;-89
2023/07/14 05:43:35;;;;;;;4.38;2.20;;;17.60;94.00;;;;;;5009833;28;20241;-89
2023/07/14 05:46:03;;;;;;;4.63;2.40;;;18.00;92.80;;;;;;5015370;28;20220;-89
2023/07/14 05:51:09;;;;;;;6.22;2.50;;;18.60;90.60;;;;;;5838198;23;20259;-91
2023/07/14 05:53:36;;;;;;;2.55;2.33;;;18.70;90.10;;;;;;4985799;28;20281;-91
2023/07/14 05:56:04;;;;;;;3.38;2.10;;;19.10;88.90;;;;;;4983911;28;20281;-90
2023/07/14 05:58:30;;;;;;;3.67;2.10;;;19.80;80.70;;;;;;4979130;28;20197;-93
2023/07/14 06:00:57;;;;;;;3.75;2.30;;;19.80;75.30;;;;;;4968310;28;20196;-92
2023/07/14 06:03:24;;;;;;;5.18;2.45;;;19.40;79.40;;;;;;4974775;28;20204;-91
2023/07/14 06:05:51;;;;;;;2.83;2.10;;;19.20;82.80;;;;;;4976074;28;20232;-89
2023/07/14 06:08:20;;;;;;;3.20;2.30;;;18.90;82.90;;;;;;4952381;28;20201;-91
2023/07/14 06:10:46;;;;;;;3.65;2.20;;;18.80;83.50;;;;;;4967403;28;20287;-92
2023/07/14 06:13:13;;;;;;;2.67;2.17;;;18.60;84.60;;;;;;4985666;28;20204;-91
2023/07/14 06:15:40;;;;;;;2.95;2.58;;;18.70;86.40;;;;;;4964385;28;20842;-93
2023/07/14 06:20:42;;;;;;;3.88;2.50;;;18.60;85.10;;;;;;5008231;26;20261;-87
2023/07/14 06:23:09;;;;;;;3.40;2.10;;;18.60;85.50;;;;;;5027669;28;20243;-88
2023/07/14 06:25:38;;;;;;;5.50;2.60;;;18.60;86.70;;;;;;4985268;28;20211;-89
2023/07/14 06:28:06;;;;;;;2.10;1.90;;;18.70;84.50;;;;;;4991283;28;20200;-89
2023/07/14 06:30:35;;;;;;;5.13;2.40;;;18.80;83.30;;;;;;4972267;28;20257;-90
2023/07/14 06:33:02;;;;;;;2.90;2.15;;;18.90;83.50;;;;;;4992187;28;20196;-88
2023/07/14 06:35:29;;;;;;;4.38;2.10;;;19.00;83.20;;;;;;4985626;28;20726;-89
2023/07/14 06:37:57;;;;;;;5.55;2.25;;;19.10;83.20;;;;;;5003219;28;20204;-87
2023/07/14 06:40:25;;;;;;;3.13;2.15;;;19.20;82.90;;;;;;4988829;28;20208;-91
2023/07/14 06:42:54;;;;;;;3.97;2.10;;;19.30;80.30;;;;;;5011288;28;20751;-89
2023/07/14 06:45:20;;;;;;;4.15;2.30;;;19.40;80.40;;;;;;5018201;28;21839;-89
2023/07/14 06:47:47;;;;;;;2.92;2.22;;;19.50;80.50;;;;;;5003100;28;20596;-89
2023/07/14 06:50:14;;;;;;;2.78;2.20;;;19.70;77.20;;;;;;5000415;28;20199;-88
2023/07/14 06:52:42;;;;;;;3.03;2.30;;;19.80;76.40;;;;;;4992448;28;20196;-87
2023/07/14 06:55:10;;;;;;;3.28;2.22;;;20.00;75.40;;;;;;4992167;28;20204;-90
2023/07/14 06:57:37;;;;;;;8.80;2.40;;;20.00;75.60;;;;;;4984435;28;20200;-90
2023/07/14 07:03:08;;;;;;;2.45;2.10;;;20.30;68.60;;;;;;5679121;22;20288;-90
2023/07/14 07:05:37;;;;;;;5.13;2.30;;;20.50;65.00;;;;;;5092305;28;20198;-90
2023/07/14 07:08:05;;;;;;;5.03;2.17;;;20.60;62.20;;;;;;5072410;28;20199;-89
2023/07/14 07:10:34;;;;;;;3.65;2.08;;;20.70;62.70;;;;;;5028360;28;20183;-90
2023/07/14 07:13:01;;;;;;;2.53;2.00;;;21.00;64.70;;;;;;5032279;28;20223;-89
2023/07/14 07:15:32;;;;;;;3.85;2.40;;;21.50;57.30;;;;;;5016596;28;20207;-92
2023/07/14 07:17:59;;;;;;;4.13;2.05;;;21.90;49.30;;;;;;5081681;28;20307;-92
2023/07/14 07:20:26;;;;;;;4.13;2.13;;;22.20;48.80;;;;;;5004307;28;20211;-87
2023/07/14 07:22:54;;;;;;;9.77;2.20;;;22.30;44.60;;;;;;5009114;28;20203;-87
2023/07/14 07:25:21;;;;;;;9.52;1.77;;;22.30;44.60;;;;;;5000516;28;20196;-88
2023/07/14 07:27:48;;;;;;;2.67;1.80;;;22.50;40.90;;;;;;5006968;28;20226;-90
2023/07/14 07:30:15;;;;;;;4.63;2.35;;;22.40;42.80;;;;;;5010006;28;20208;-91
2023/07/14 07:32:47;;;;;;;6.80;2.30;;;22.40;42.50;;;;;;5019846;28;20191;-90
2023/07/14 07:35:15;;;;;;;4.25;1.90;;;22.10;43.40;;;;;;5020407;28;20207;-89
2023/07/14 07:37:42;;;;;;;4.22;2.38;;;22.00;42.80;;;;;;5015986;28;20192;-88
2023/07/14 07:50:39;;;;;;;2.35;2.15;;;22.20;40.70;;;;;;5360078;22;20227;-90
2023/07/14 07:53:06;;;;;;;5.32;2.65;;;22.10;41.50;;;;;;5008006;28;20197;-91
2023/07/14 07:55:33;;;;;;;5.25;2.40;;;22.20;42.30;;;;;;5005313;28;20295;-91
2023/07/14 07:58:00;;;;;;;3.45;2.50;;;22.20;46.80;;;;;;5007243;28;20196;-91
2023/07/14 08:03:02;;;;;;;4.13;2.10;;;22.70;40.20;;;;;;5194804;22;20272;-90
2023/07/14 08:05:29;;;;;;;5.80;2.42;;;22.80;42.10;;;;;;5018586;28;20197;-90
2023/07/14 08:07:57;;;;;;;4.32;2.42;;;22.90;38.70;;;;;;5086462;28;20219;-90
2023/07/14 08:10:24;;;;;;;4.28;2.30;;;22.80;39.70;;;;;;5020042;28;20233;-91
2023/07/14 08:12:52;;;;;;;3.55;2.78;;;22.60;38.40;;;;;;5256925;22;20301;-88
2023/07/14 08:15:19;;;;;;;4.05;2.25;;;22.60;42.60;;;;;;5008202;28;20875;-91
2023/07/14 08:17:56;;;;;;;10.00;7.75;;;23.00;42.10;;;;;;4998696;28;20275;-89
2023/07/14 08:20:23;;;;;;;4.05;2.47;;;23.50;35.00;;;;;;5003420;28;20200;-91
2023/07/14 08:22:50;;;;;;;6.25;2.90;;;23.50;35.00;;;;;;5002401;28;20224;-91
2023/07/14 08:25:18;;;;;;;4.75;2.10;;;23.60;34.10;;;;;;5077342;22;20235;-90
2023/07/14 08:27:45;;;;;;;4.13;2.50;;;23.70;37.60;;;;;;5008102;28;20230;-89
2023/07/14 08:30:12;;;;;;;4.75;2.42;;;24.50;31.90;;;;;;5014612;28;20278;-88
2023/07/14 08:32:39;;;;;;;5.22;2.30;;;25.80;23.90;;;;;;5018490;28;20702;-90
2023/07/14 08:35:07;;;;;;;3.42;3.05;;;27.60;17.20;;;;;;5014244;28;20218;-93
2023/07/14 08:37:34;;;;;;;3.90;3.25;;;28.30;15.80;;;;;;5008831;28;20210;-92
2023/07/14 08:40:01;;;;;;;7.28;2.20;;;28.30;15.80;;;;;;5005670;28;20207;-92
2023/07/14 08:51:26;;;;;;;2.50;2.30;;;28.80;15.10;;;;;;5007848;28;20202;-89
2023/07/14 08:53:59;;;;;;;3.20;2.50;;;29.50;13.00;;;;;;5075017;28;20252;-91
2023/07/14 08:56:31;;;;;;;4.85;3.00;;;30.00;11.80;;;;;;5075425;28;20206;-90
2023/07/14 09:13:03;;;;;;;4.45;3.15;;;31.50;8.80;;;;;;5239980;22;20234;-92
2023/07/14 09:21:31;;;;;;;2.70;2.40;;;30.80;10.20;;;;;;4995846;28;20219;-90
2023/07/14 09:24:13;;;;;;;3.85;2.30;;;30.30;10.30;;;;;;4981536;28;20207;-93
2023/07/14 09:29:33;;;;;;;6.30;5.80;;;31.70;8.80;;;;;;5015312;28;20299;-92
2023/07/14 09:44:01;;;;;;;3.33;2.60;;;31.80;7.40;;;;;;5007071;28;20282;-91
2023/07/14 09:52:18;;;;;;;2.65;2.35;;;31.10;8.70;;;;;;4999244;28;20200;-90
2023/07/14 09:54:52;;;;;;;3.13;2.65;;;30.20;9.50;;;;;;5052972;28;20934;-90
2023/07/14 09:57:21;;;;;;;3.53;2.38;;;30.10;7.10;;;;;;5218750;22;20230;-91
2023/07/14 10:14:49;;;;;;;5.28;2.90;;;32.80;3.70;;;;;;5002391;28;20211;-91
2023/07/14 10:17:25;;;;;;;2.67;2.47;;;31.90;5.00;;;;;;4988930;28;20563;-91
2023/07/14 10:19:52;;;;;;;4.57;3.13;;;31.90;5.80;;;;;;4988072;28;20202;-92
2023/07/14 10:22:25;;;;;;;2.88;2.60;;;32.00;6.50;;;;;;5054309;28;20196;-92
2023/07/14 10:25:01;;;;;;;3.75;2.50;;;32.40;4.00;;;;;;4988492;28;20200;-92
2023/07/14 10:46:17;;;;;;;3.17;2.17;;;31.50;5.30;;;;;;5072591;28;20638;-94
2023/07/14 10:48:48;;;;;;;2.90;2.35;;;31.40;4.60;;;;;;5072924;28;20224;-93
2023/07/14 10:51:28;;;;;;;2.47;2.28;;;31.10;6.10;;;;;;5071668;28;20201;-93
2023/07/14 10:54:00;;;;;;;3.40;2.38;;;30.40;6.90;;;;;;5074972;28;20184;-93
2023/07/14 11:09:00;;;;;;;2.85;2.13;;;31.40;3.80;;;;;;5024114;28;20222;-89
2023/07/14 11:11:33;;;;;;;2.75;2.40;;;29.90;7.00;;;;;;5075538;28;20199;-90
2023/07/14 11:14:10;;;;;;;2.58;2.20;;;30.30;5.90;;;;;;5011302;28;20692;-89
2023/07/14 11:16:42;;;;;;;2.45;2.25;;;28.80;8.20;;;;;;5003018;28;20632;-88
2023/07/14 11:19:20;;;;;;;5.10;4.57;;;28.80;9.70;;;;;;5003749;28;20485;-87
2023/07/14 11:21:55;;;;;;;5.82;2.38;;;28.50;12.10;;;;;;5002354;28;20756;-88
2023/07/14 11:24:28;;;;;;;4.10;3.70;;;28.60;10.80;;;;;;4998037;28;20198;-88
2023/07/14 11:27:16;;;;;;;6.78;2.83;;;29.00;11.40;;;;;;5006010;28;20206;-91
2023/07/14 11:29:53;;;;;;;4.30;1.90;;;29.00;10.10;;;;;;5069493;28;20569;-90
2023/07/14 11:32:24;;;;;;;2.20;2.00;;;28.20;11.00;;;;;;4998833;28;20201;-90
2023/07/14 11:35:00;;;;;;;4.18;3.53;;;28.00;10.80;;;;;;5001664;28;20199;-90
2023/07/14 11:37:51;;;;;;;3.70;2.33;;;28.20;11.10;;;;;;5001010;28;20203;-87
2023/07/14 11:40:21;;;;;;;2.55;2.03;;;28.60;10.30;;;;;;4999470;28;20188;-86
2023/07/14 11:42:54;;;;;;;2.63;2.20;;;29.00;9.50;;;;;;5068379;28;20203;-88
2023/07/14 11:45:24;;;;;;;3.67;2.10;;;29.10;10.20;;;;;;5051116;28;20207;-88
2023/07/14 11:47:51;;;;;;;3.38;1.98;;;28.70;10.90;;;;;;5005202;28;20215;-85
2023/07/14 11:50:26;;;;;;;3.08;2.08;;;29.00;10.20;;;;;;4996737;28;20285;-86
2023/07/14 11:52:59;;;;;;;3.65;2.17;;;29.20;11.30;;;;;;4994739;28;20207;-87
2023/07/14 11:55:28;;;;;;;3.03;2.28;;;29.10;10.10;;;;;;5000260;28;20209;-87
2023/07/14 11:58:16;;;;;;;3.33;2.35;;;29.10;11.20;;;;;;5002169;28;20199;-87
2023/07/14 12:00:47;;;;;;;2.00;1.90;;;29.10;10.20;;;;;;4997812;28;20207;-87
2023/07/14 12:03:27;;;;;;;2.15;1.92;;;29.00;10.80;;;;;;5004766;28;20217;-89
2023/07/14 12:06:28;;;;;;;3.78;2.10;;;29.00;9.50;;;;;;5003537;28;20210;-87
2023/07/14 12:09:12;;;;;;;2.90;1.98;;;28.70;10.00;;;;;;5017381;28;20223;-87
2023/07/14 12:11:55;;;;;;;3.88;1.88;;;28.70;10.00;;;;;;5006248;28;20191;-90
2023/07/14 12:14:29;;;;;;;2.22;2.03;;;28.80;9.30;;;;;;5065964;28;20199;-89
2023/07/14 12:16:57;;;;;;;2.67;1.90;;;28.90;8.40;;;;;;5004136;28;20199;-90
2023/07/14 12:19:31;;;;;;;2.22;1.90;;;28.80;8.60;;;;;;5002045;28;20293;-89
2023/07/14 12:22:04;;;;;;;3.17;2.08;;;28.90;9.20;;;;;;5004646;28;20607;-89
2023/07/14 12:24:32;;;;;;;4.63;3.50;;;28.80;10.50;;;;;;5059098;28;21510;-89
2023/07/14 12:27:17;;;;;;;3.03;2.70;;;28.80;10.70;;;;;;5003912;28;20559;-90
2023/07/14 12:29:45;;;;;;;2.63;2.08;;;28.80;9.40;;;;;;5009552;28;20203;-89
2023/07/14 12:32:18;;;;;;;1.90;1.80;;;28.90;8.90;;;;;;5004819;28;20660;-89
2023/07/14 12:34:46;;;;;;;2.33;2.00;;;29.10;8.50;;;;;;5072910;28;20195;-89
2023/07/14 12:37:18;;;;;;;2.10;1.90;;;29.20;7.80;;;;;;5004096;28;20210;-89
2023/07/14 12:39:46;;;;;;;2.92;1.80;;;29.40;7.70;;;;;;5004908;28;20726;-89
2023/07/14 12:42:15;;;;;;;2.10;1.75;;;29.50;7.30;;;;;;5006804;28;21687;-89
2023/07/14 12:44:42;;;;;;;4.90;2.25;;;29.60;8.90;;;;;;4992850;28;20223;-89
2023/07/14 12:47:15;;;;;;;2.00;1.80;;;29.40;10.10;;;;;;5007000;28;20961;-89
2023/07/14 12:49:46;;;;;;;2.33;2.00;;;29.40;8.00;;;;;;5005518;28;20214;-90
2023/07/14 12:52:18;;;;;;;4.25;1.92;;;29.10;7.70;;;;;;5065164;28;20206;-89
2023/07/14 12:54:46;;;;;;;2.55;2.08;;;29.10;8.40;;;;;;5005336;28;20754;-89
2023/07/14 12:57:14;;;;;;;4.28;2.33;;;29.20;8.60;;;;;;5005481;28;20203;-90
2023/07/14 12:59:41;;;;;;;3.75;2.03;;;29.10;9.50;;;;;;5001353;28;20293;-88
2023/07/14 13:02:12;;;;;;;2.67;1.80;;;29.20;9.20;;;;;;5004980;28;20225;-89
2023/07/14 13:04:40;;;;;;;2.38;2.10;;;29.40;8.70;;;;;;5045378;28;20195;-89
2023/07/14 13:07:13;;;;;;;2.22;2.03;;;29.60;8.30;;;;;;4998696;28;20202;-88
2023/07/14 13:09:42;;;;;;;6.50;2.00;;;29.50;8.10;;;;;;5060161;28;20978;-89
2023/07/14 13:12:13;;;;;;;2.17;1.90;;;29.00;8.20;;;;;;5003936;28;20682;-88
2023/07/14 13:14:47;;;;;;;2.30;2.10;;;28.60;7.90;;;;;;5007375;28;20219;-88
2023/07/14 13:17:20;;;;;;;2.05;1.63;;;28.70;8.30;;;;;;5025367;28;20204;-88
2023/07/14 13:19:48;;;;;;;2.50;2.30;;;28.70;8.00;;;;;;5001755;28;20239;-88
2023/07/14 13:22:20;;;;;;;2.78;1.90;;;28.30;9.40;;;;;;4993211;28;20250;-89
2023/07/14 13:24:58;;;;;;;2.40;2.20;;;28.30;10.00;;;;;;5005702;28;20238;-89
2023/07/14 13:27:27;;;;;;;3.80;2.20;;;28.50;9.90;;;;;;5004450;28;20274;-88
2023/07/14 13:30:02;;;;;;;2.30;2.17;;;28.70;9.20;;;;;;5051054;28;20194;-88
2023/07/14 13:32:29;;;;;;;2.53;2.33;;;28.90;8.80;;;;;;5058541;28;20275;-88
2023/07/14 13:34:59;;;;;;;2.60;2.40;;;28.90;9.50;;;;;;4999511;28;20207;-89
2023/07/14 13:37:27;;;;;;;4.85;2.60;;;29.20;8.80;;;;;;5002776;28;20205;-89
2023/07/14 13:39:58;;;;;;;2.55;2.13;;;29.10;9.00;;;;;;4996674;28;20241;-88
2023/07/14 13:42:33;;;;;;;3.95;2.00;;;28.80;9.30;;;;;;5062577;28;20259;-89
2023/07/14 13:45:02;;;;;;;2.72;2.22;;;28.70;8.70;;;;;;5001018;28;20194;-89
2023/07/14 13:47:39;;;;;;;4.50;2.00;;;28.80;8.70;;;;;;5070580;28;20199;-89
2023/07/14 13:50:07;;;;;;;3.10;2.05;;;29.00;8.50;;;;;;5071770;28;20194;-88
2023/07/14 13:52:36;;;;;;;2.35;1.90;;;28.90;9.20;;;;;;5070493;28;20207;-88
2023/07/14 13:55:13;;;;;;;2.45;2.25;;;28.70;8.90;;;;;;5002042;28;20237;-88
2023/07/14 13:57:40;;;;;;;3.55;1.90;;;28.60;9.70;;;;;;5002873;28;20202;-89
2023/07/14 14:00:10;;;;;;;2.47;2.28;;;28.50;9.90;;;;;;4994911;28;20203;-88
2023/07/14 14:02:39;;;;;;;1.88;1.77;;;28.50;9.80;;;;;;5002873;28;20297;-88
2023/07/14 14:05:13;;;;;;;3.13;1.90;;;28.50;10.30;;;;;;5002972;28;20199;-88
2023/07/14 14:07:40;;;;;;;3.80;2.38;;;28.60;9.90;;;;;;5004070;28;20222;-88
2023/07/14 14:10:12;;;;;;;3.38;2.10;;;28.70;9.40;;;;;;5005770;28;20286;-89
2023/07/14 14:12:39;;;;;;;2.38;2.17;;;28.90;9.60;;;;;;5004389;28;20191;-88
2023/07/14 14:15:08;;;;;;;3.20;2.00;;;29.00;9.00;;;;;;5003009;28;20195;-88
2023/07/14 14:17:38;;;;;;;2.25;2.05;;;29.10;7.90;;;;;;5066062;28;20700;-88
2023/07/14 14:20:11;;;;;;;2.53;2.00;;;29.10;8.70;;;;;;5000348;28;20208;-88
2023/07/14 14:22:38;;;;;;;2.70;1.85;;;29.10;8.30;;;;;;5052579;28;20742;-88
2023/07/14 14:25:16;;;;;;;4.30;1.80;;;29.00;7.80;;;;;;5067738;28;20214;-88
2023/07/14 14:27:43;;;;;;;2.47;2.05;;;28.80;7.30;;;;;;5003548;28;20627;-88
2023/07/14 14:30:11;;;;;;;2.92;1.80;;;28.60;8.80;;;;;;5007202;28;20204;-88
2023/07/14 14:32:38;;;;;;;3.95;2.00;;;28.40;8.90;;;;;;5071658;28;20207;-88
2023/07/14 14:35:22;;;;;;;2.63;1.98;;;28.30;8.30;;;;;;4998891;28;20206;-88
2023/07/14 14:37:50;;;;;;;4.18;1.90;;;28.30;8.40;;;;;;5073111;28;20572;-88
2023/07/14 14:40:18;;;;;;;2.30;2.00;;;28.20;8.60;;;;;;5018445;28;20196;-89
2023/07/14 14:42:45;;;;;;;2.22;2.03;;;28.20;9.30;;;;;;5072207;28;20206;-88
2023/07/14 14:45:20;;;;;;;2.22;2.03;;;28.20;10.10;;;;;;5010147;28;20192;-88
2023/07/14 14:47:48;;;;;;;5.38;2.08;;;28.00;10.60;;;;;;5006453;28;20205;-88
2023/07/14 14:50:15;;;;;;;2.47;1.80;;;28.00;9.10;;;;;;5068472;28;20233;-88
2023/07/14 14:52:44;;;;;;;3.65;2.00;;;27.80;9.40;;;;;;5003972;28;20194;-88
2023/07/14 14:55:13;;;;;;;2.00;1.80;;;27.90;9.20;;;;;;5070130;28;20206;-89
2023/07/14 14:57:44;;;;;;;3.38;2.10;;;28.00;9.30;;;;;;5068017;28;20279;-88
2023/07/14 15:00:19;;;;;;;4.10;2.03;;;28.10;10.30;;;;;;5001766;28;20199;-88
2023/07/14 15:02:46;;;;;;;4.25;2.20;;;28.30;9.80;;;;;;5009642;28;20297;-88
2023/07/14 15:05:15;;;;;;;2.08;1.98;;;28.50;9.70;;;;;;5008425;28;20200;-88
2023/07/14 15:07:42;;;;;;;4.07;2.00;;;28.70;9.90;;;;;;4999034;28;20226;-88
2023/07/14 15:10:10;;;;;;;2.10;1.90;;;28.70;8.70;;;;;;5076235;28;20222;-88
2023/07/14 15:12:38;;;;;;;2.47;2.20;;;28.80;8.30;;;;;;5081868;28;20226;-87